Weather search by city/station or by Location Indicator (LI)

Please do one of the following:
a) Search the weather station by station, city or country name and click Search button
b) Enter the four-character Location Indicator (i.e. EFHK = Helsinki) and click Submit button

a) Search the station:   

b) Location Indicator:  

The ICAO Location Indicator code is explained here.

METAR = EFHK 222250Z 22005KT CAVOK 07/02 Q1027 NOSIG

STATIONEFHK
NAMEHelsinki/Vantaa Arpt, --, FI
OBSERVED23.04.2019 01:50 (22.04.2019 22:50 UTC), 14 min ago
TEMPERATURE7.0°C ( 45°F)
WINDCHILL5.2 °C (41 °F)
WINDSW (220 degrees) at 6 MPH (5 knots; 2.6 m/s)
HUMIDITY70%
PRESSURE1026.8 hPa